Time;durP1;ratioP1;P1;durP2;ratioP2;P2;SDS_P1;SDS_P2;PMS_P1;PMS_P2;Temp;Humidity;BMP_temperature;BMP_pressure;BME280_temperature;BME280_humidity;BME280_pressure;Samples;Min_cycle;Max_cycle;Signal;HPM_P1;HPM_P2
2022/03/02 00:01:54;;;;;;;;;;;-0.50;78.70;;;;;;5186078;28;19924;-80
2022/03/02 00:04:26;;;;;;;;;;;-0.50;78.10;;;;;;5204194;28;19932;-77
2022/03/02 00:06:59;;;;;;;;;;;-0.50;78.70;;;;;;5201710;28;19921;-78
2022/03/02 00:09:31;;;;;;;;;;;-0.50;78.20;;;;;;5191822;28;19929;-76
2022/03/02 00:12:03;;;;;;;;;;;-0.60;78.20;;;;;;5185532;28;19925;-77
2022/03/02 00:14:36;;;;;;;;;;;-0.60;78.80;;;;;;5204967;28;19920;-77
2022/03/02 00:17:08;;;;;;;;;;;-0.70;78.30;;;;;;5205387;28;19924;-80
2022/03/02 00:19:41;;;;;;;;;;;-0.60;78.10;;;;;;5205383;28;19928;-82
2022/03/02 00:22:13;;;;;;;;;;;-0.60;78.50;;;;;;5208062;28;19924;-80
2022/03/02 00:24:50;;;;;;;;;;;-0.70;78.70;;;;;;5182484;28;19925;-80
2022/03/02 00:27:26;;;;;;;;;;;-0.70;79.60;;;;;;5206671;28;19924;-81
2022/03/02 00:29:58;;;;;;;;;;;-0.70;78.90;;;;;;5205651;28;19928;-77
2022/03/02 00:32:31;;;;;;;;;;;-0.70;78.80;;;;;;5180724;28;20414;-75
2022/03/02 00:35:03;;;;;;;;;;;-0.70;79.60;;;;;;5206271;28;19927;-77
2022/03/02 00:37:36;;;;;;;;;;;-0.70;79.60;;;;;;5200334;28;19924;-78
2022/03/02 00:40:08;;;;;;;;;;;-0.70;79.40;;;;;;5188901;28;19921;-79
2022/03/02 00:42:40;;;;;;;;;;;-0.70;79.20;;;;;;5183243;28;19936;-77
2022/03/02 00:45:12;;;;;;;;;;;-0.80;78.70;;;;;;5202674;28;19924;-78
2022/03/02 00:47:45;;;;;;;;;;;-0.80;78.90;;;;;;5201190;28;19928;-79
2022/03/02 00:50:17;;;;;;;;;;;-0.80;79.90;;;;;;5203624;28;19921;-80
2022/03/02 00:52:50;;;;;;;;;;;-0.90;78.80;;;;;;5203714;28;20309;-76
2022/03/02 00:55:22;;;;;;;;;;;-0.90;78.30;;;;;;5171060;28;19924;-74
2022/03/02 00:57:55;;;;;;;;;;;-0.90;79.40;;;;;;5204979;28;19920;-77
2022/03/02 01:00:27;;;;;;;;;;;-0.90;80.40;;;;;;5201427;28;20091;-77
2022/03/02 01:02:59;;;;;;;;;;;-0.90;80.60;;;;;;5203379;28;19925;-75
2022/03/02 01:05:32;;;;;;;;;;;-0.90;80.30;;;;;;5205944;28;20368;-80
2022/03/02 01:08:05;;;;;;;;;;;-1.00;79.50;;;;;;5205489;28;20311;-79
2022/03/02 01:10:37;;;;;;;;;;;-1.10;79.60;;;;;;5187565;28;20335;-76
2022/03/02 01:13:09;;;;;;;;;;;-0.90;80.90;;;;;;5189365;28;19932;-77
2022/03/02 01:15:41;;;;;;;;;;;-1.00;80.20;;;;;;5187218;28;19936;-75
2022/03/02 01:18:14;;;;;;;;;;;-1.10;80.30;;;;;;5200413;28;19925;-82
2022/03/02 01:20:46;;;;;;;;;;;-1.10;80.20;;;;;;5204995;28;19921;-75
2022/03/02 01:23:18;;;;;;;;;;;-1.10;81.00;;;;;;5172649;28;19948;-78
2022/03/02 01:25:51;;;;;;;;;;;-1.20;80.70;;;;;;5204200;28;19936;-75
2022/03/02 01:28:23;;;;;;;;;;;-1.20;81.10;;;;;;5201600;28;19924;-78
2022/03/02 01:30:55;;;;;;;;;;;-1.20;80.90;;;;;;5200223;28;19935;-79
2022/03/02 01:33:27;;;;;;;;;;;-1.20;81.10;;;;;;5187190;28;19924;-80
2022/03/02 01:35:59;;;;;;;;;;;-1.30;79.80;;;;;;5205259;28;19925;-78
2022/03/02 01:38:32;;;;;;;;;;;-1.30;80.00;;;;;;5201581;28;19960;-75
2022/03/02 01:41:04;;;;;;;;;;;-1.40;80.20;;;;;;5185060;28;19928;-78
2022/03/02 01:43:36;;;;;;;;;;;-1.40;79.50;;;;;;5200000;28;19924;-80
2022/03/02 01:46:09;;;;;;;;;;;-1.50;79.50;;;;;;5207040;28;19925;-76
2022/03/02 01:48:41;;;;;;;;;;;-1.50;79.80;;;;;;5202898;28;19931;-75
2022/03/02 01:51:14;;;;;;;;;;;-1.50;81.40;;;;;;5190658;28;19921;-77
2022/03/02 01:53:46;;;;;;;;;;;-1.60;80.80;;;;;;5204846;28;19932;-80
2022/03/02 01:56:19;;;;;;;;;;;-1.50;80.90;;;;;;5204954;28;19925;-81
2022/03/02 01:58:51;;;;;;;;;;;-1.70;81.30;;;;;;5205583;28;19943;-75
2022/03/02 02:01:23;;;;;;;;;;;-1.60;81.50;;;;;;5187542;28;19927;-75
2022/03/02 02:03:56;;;;;;;;;;;-1.60;82.20;;;;;;5202793;28;20564;-79
2022/03/02 02:06:30;;;;;;;;;;;-1.70;81.50;;;;;;5203926;28;19921;-77
2022/03/02 02:09:04;;;;;;;;;;;-2.00;81.30;;;;;;5202773;28;20683;-77
2022/03/02 02:11:37;;;;;;;;;;;-1.90;80.80;;;;;;5187789;28;19940;-76
2022/03/02 02:14:09;;;;;;;;;;;-1.70;82.30;;;;;;5192833;28;19931;-75
2022/03/02 02:16:41;;;;;;;;;;;-1.80;81.60;;;;;;5202605;28;19924;-75
2022/03/02 02:19:13;;;;;;;;;;;-1.80;82.50;;;;;;5200938;28;19925;-80
2022/03/02 02:21:49;;;;;;;;;;;-0.80;82.90;;;;;;5185691;28;19931;-79
2022/03/02 02:24:21;;;;;;;;;;;-1.70;82.30;;;;;;5189874;28;19929;-76
2022/03/02 02:26:54;;;;;;;;;;;-1.80;82.40;;;;;;5188630;28;19925;-79
2022/03/02 02:29:28;;;;;;;;;;;-1.80;82.40;;;;;;5201004;28;19921;-78
2022/03/02 02:32:00;;;;;;;;;;;-1.80;82.20;;;;;;5185402;28;19925;-80
2022/03/02 02:34:32;;;;;;;;;;;-1.90;82.00;;;;;;5175465;28;19939;-79
2022/03/02 02:37:05;;;;;;;;;;;-0.70;83.30;;;;;;5206744;28;19924;-76
2022/03/02 02:39:38;;;;;;;;;;;-1.90;81.90;;;;;;5205393;28;19924;-80
2022/03/02 02:42:10;;;;;;;;;;;-2.00;83.00;;;;;;5207290;28;19925;-76
2022/03/02 02:44:43;;;;;;;;;;;-2.00;83.10;;;;;;5207567;28;19928;-76
2022/03/02 02:47:16;;;;;;;;;;;-2.00;83.00;;;;;;5209543;28;19932;-79
2022/03/02 02:49:49;;;;;;;;;;;-2.10;82.90;;;;;;5193844;28;19936;-75
2022/03/02 02:52:21;;;;;;;;;;;-2.00;82.70;;;;;;5207134;28;19923;-77
2022/03/02 02:54:53;;;;;;;;;;;-2.10;82.90;;;;;;5204879;28;19936;-75
2022/03/02 02:57:25;;;;;;;;;;;-2.10;83.30;;;;;;5189333;28;19925;-76
2022/03/02 02:59:57;;;;;;;;;;;-2.10;82.90;;;;;;5186274;28;19921;-76
2022/03/02 03:02:29;;;;;;;;;;;-2.10;83.70;;;;;;5188617;28;20332;-79
2022/03/02 03:05:02;;;;;;;;;;;-2.10;83.10;;;;;;5194374;28;19929;-79
2022/03/02 03:07:34;;;;;;;;;;;-2.00;82.90;;;;;;5188937;28;19948;-81
2022/03/02 03:10:07;;;;;;;;;;;-2.20;82.80;;;;;;5206794;28;19917;-82
2022/03/02 03:12:40;;;;;;;;;;;-1.20;83.50;;;;;;5193632;28;19943;-78
2022/03/02 03:15:13;;;;;;;;;;;-2.20;82.90;;;;;;5208939;28;20323;-78
2022/03/02 03:17:45;;;;;;;;;;;-2.00;84.30;;;;;;5207265;28;19924;-79
2022/03/02 03:20:19;;;;;;;;;;;-1.50;84.10;;;;;;5205012;28;19931;-76
2022/03/02 03:22:52;;;;;;;;;;;-2.10;83.50;;;;;;5187171;28;20287;-78
2022/03/02 03:25:25;;;;;;;;;;;-2.10;83.90;;;;;;5206827;28;19928;-78
2022/03/02 03:27:58;;;;;;;;;;;-2.10;82.90;;;;;;5186512;28;19925;-77
2022/03/02 03:30:30;;;;;;;;;;;-2.00;83.10;;;;;;5194596;28;19977;-80
2022/03/02 03:33:04;;;;;;;;;;;-1.80;83.20;;;;;;5192718;28;19925;-75
2022/03/02 03:35:36;;;;;;;;;;;-2.00;83.90;;;;;;5194414;28;19932;-77
2022/03/02 03:38:09;;;;;;;;;;;-2.10;83.70;;;;;;5204328;28;19963;-76
2022/03/02 03:40:41;;;;;;;;;;;-1.70;82.70;;;;;;5188067;28;20581;-76
2022/03/02 03:43:13;;;;;;;;;;;-2.10;82.10;;;;;;5206821;28;19928;-78
2022/03/02 03:45:45;;;;;;;;;;;-2.20;82.70;;;;;;5204092;28;19936;-82
2022/03/02 03:48:18;;;;;;;;;;;-2.30;83.10;;;;;;5189856;28;19936;-77
2022/03/02 03:50:50;;;;;;;;;;;-2.20;83.80;;;;;;5188613;28;19920;-77
2022/03/02 03:53:22;;;;;;;;;;;-2.20;83.00;;;;;;5176596;28;19929;-78
2022/03/02 03:55:54;;;;;;;;;;;-2.00;83.10;;;;;;5203486;28;19932;-77
2022/03/02 03:58:26;;;;;;;;;;;-2.30;83.00;;;;;;5206566;28;19924;-76
2022/03/02 04:00:59;;;;;;;;;;;-2.30;83.80;;;;;;5206470;28;19925;-77
2022/03/02 04:03:31;;;;;;;;;;;-2.20;83.20;;;;;;5173873;28;20303;-80
2022/03/02 04:06:03;;;;;;;;;;;-2.30;82.70;;;;;;5197214;28;19929;-75
2022/03/02 04:08:35;;;;;;;;;;;-2.00;83.30;;;;;;5199018;28;19943;-79
2022/03/02 04:11:08;;;;;;;;;;;-2.60;83.60;;;;;;5208013;28;19925;-75
2022/03/02 04:13:40;;;;;;;;;;;-2.20;84.60;;;;;;5208184;28;19982;-76
2022/03/02 04:16:12;;;;;;;;;;;-2.20;84.20;;;;;;5208221;28;19936;-75
2022/03/02 04:18:44;;;;;;;;;;;-2.10;84.10;;;;;;5192871;28;19928;-78
2022/03/02 04:21:17;;;;;;;;;;;-2.30;83.80;;;;;;5205937;28;19933;-77
2022/03/02 04:23:49;;;;;;;;;;;-2.30;83.90;;;;;;5204640;28;20364;-81
2022/03/02 04:26:21;;;;;;;;;;;-1.80;84.30;;;;;;5190217;28;19925;-76
2022/03/02 04:28:54;;;;;;;;;;;-2.10;84.00;;;;;;5187538;28;19920;-78
2022/03/02 04:31:26;;;;;;;;;;;-2.10;83.90;;;;;;5208734;28;19924;-77
2022/03/02 04:33:59;;;;;;;;;;;-2.00;84.50;;;;;;5191101;28;20455;-77
2022/03/02 04:36:31;;;;;;;;;;;-1.80;84.60;;;;;;5190985;28;20404;-77
2022/03/02 04:39:03;;;;;;;;;;;-2.00;84.40;;;;;;5206725;28;19935;-77
2022/03/02 04:41:35;;;;;;;;;;;-2.00;84.30;;;;;;5191564;28;19925;-78
2022/03/02 04:44:08;;;;;;;;;;;-2.00;84.70;;;;;;5188873;28;19925;-80
2022/03/02 04:46:40;;;;;;;;;;;-1.70;84.20;;;;;;5187500;28;21294;-79
2022/03/02 04:49:13;;;;;;;;;;;-2.00;83.50;;;;;;5205232;28;19925;-77
2022/03/02 04:51:46;;;;;;;;;;;-1.90;84.10;;;;;;5188928;28;19921;-77
2022/03/02 04:57:10;;;;;;;;;;;-2.00;83.90;;;;;;5205366;28;20637;-76
2022/03/02 04:59:43;;;;;;;;;;;-1.60;83.80;;;;;;5190161;28;19929;-78
2022/03/02 05:02:17;;;;;;;;;;;-1.50;84.20;;;;;;5207275;28;19931;-76
2022/03/02 05:04:49;;;;;;;;;;;-1.80;84.20;;;;;;5172546;28;19932;-76
2022/03/02 05:07:21;;;;;;;;;;;-1.10;83.60;;;;;;5168705;28;19925;-77
2022/03/02 05:09:54;;;;;;;;;;;-1.70;83.50;;;;;;5204980;28;19936;-78
2022/03/02 05:12:26;;;;;;;;;;;-0.90;84.10;;;;;;5204462;28;19924;-78
2022/03/02 05:14:58;;;;;;;;;;;-1.80;83.60;;;;;;5195257;28;20779;-76
2022/03/02 05:17:30;;;;;;;;;;;-1.60;83.50;;;;;;5204455;28;19935;-79
2022/03/02 05:20:03;;;;;;;;;;;-1.80;83.40;;;;;;5206180;28;19920;-80
2022/03/02 05:22:36;;;;;;;;;;;-1.60;83.70;;;;;;5206373;28;19927;-80
2022/03/02 05:25:09;;;;;;;;;;;-1.50;84.00;;;;;;5195193;28;19932;-75
2022/03/02 05:27:41;;;;;;;;;;;-1.60;83.90;;;;;;5206138;28;20403;-81
2022/03/02 05:30:17;;;;;;;;;;;-1.50;83.80;;;;;;5207295;28;20323;-78
2022/03/02 05:32:50;;;;;;;;;;;-1.50;83.50;;;;;;5206236;28;20471;-79
2022/03/02 05:35:22;;;;;;;;;;;-1.40;83.40;;;;;;5194953;28;19931;-79
2022/03/02 05:37:54;;;;;;;;;;;-1.60;83.60;;;;;;5204827;28;19931;-81
2022/03/02 05:40:27;;;;;;;;;;;-1.20;84.50;;;;;;5187502;28;19925;-78
2022/03/02 05:42:59;;;;;;;;;;;-1.50;82.90;;;;;;5203316;28;19925;-80
2022/03/02 05:45:31;;;;;;;;;;;-1.60;81.70;;;;;;5204667;28;20130;-79
2022/03/02 05:48:03;;;;;;;;;;;-1.40;81.90;;;;;;5204324;28;20481;-79
2022/03/02 05:50:36;;;;;;;;;;;-1.50;82.00;;;;;;5203913;28;20401;-77
2022/03/02 05:53:12;;;;;;;;;;;-1.40;81.20;;;;;;5192686;28;19928;-80
2022/03/02 05:55:44;;;;;;;;;;;-1.50;80.80;;;;;;5200455;28;19925;-79
2022/03/02 05:58:17;;;;;;;;;;;-1.50;80.60;;;;;;5203395;28;19944;-77
2022/03/02 06:00:49;;;;;;;;;;;-1.40;80.70;;;;;;5202969;28;19921;-76
2022/03/02 06:03:21;;;;;;;;;;;-1.50;82.40;;;;;;5199942;28;19932;-75
2022/03/02 06:05:53;;;;;;;;;;;-1.30;82.70;;;;;;5203090;28;19929;-76
2022/03/02 06:08:26;;;;;;;;;;;-0.70;84.10;;;;;;5186978;28;19931;-75
2022/03/02 06:10:58;;;;;;;;;;;-1.40;83.30;;;;;;5172778;28;19921;-79
2022/03/02 06:13:31;;;;;;;;;;;-1.40;83.40;;;;;;5191500;28;19920;-77
2022/03/02 06:16:03;;;;;;;;;;;-1.90;82.80;;;;;;5206229;28;20274;-80
2022/03/02 06:18:36;;;;;;;;;;;-1.10;82.70;;;;;;5206395;28;19924;-76
2022/03/02 06:21:11;;;;;;;;;;;-0.80;83.70;;;;;;5207663;28;19931;-76
2022/03/02 06:23:43;;;;;;;;;;;-1.80;83.50;;;;;;5208443;28;20490;-80
2022/03/02 06:26:17;;;;;;;;;;;-1.80;84.30;;;;;;5206960;28;19932;-78
2022/03/02 06:28:49;;;;;;;;;;;-1.10;84.20;;;;;;5182118;28;19921;-78
2022/03/02 06:31:22;;;;;;;;;;;-0.90;84.20;;;;;;5206708;28;19921;-79
2022/03/02 06:33:54;;;;;;;;;;;-1.10;83.80;;;;;;5206632;28;19929;-75
2022/03/02 06:36:26;;;;;;;;;;;-1.90;83.50;;;;;;5188047;28;19941;-75
2022/03/02 06:38:58;;;;;;;;;;;-1.30;83.40;;;;;;5203571;28;19929;-75
2022/03/02 06:41:34;;;;;;;;;;;-1.10;84.10;;;;;;5188996;28;19929;-75
2022/03/02 06:44:14;;;;;;;;;;;-1.00;83.10;;;;;;5205018;28;19924;-75
2022/03/02 06:46:47;;;;;;;;;;;-1.00;81.90;;;;;;5206948;28;19920;-75
2022/03/02 06:49:23;;;;;;;;;;;-0.80;83.30;;;;;;5191441;28;19929;-75
2022/03/02 06:52:00;;;;;;;;;;;-2.60;82.00;;;;;;5187422;28;19921;-74
2022/03/02 06:54:32;;;;;;;;;;;-0.90;83.60;;;;;;5190848;28;20501;-75
2022/03/02 06:57:08;;;;;;;;;;;-0.80;82.60;;;;;;5206630;28;19916;-74
2022/03/02 06:59:43;;;;;;;;;;;-0.80;82.20;;;;;;5196280;28;19928;-75
2022/03/02 07:02:19;;;;;;;;;;;-0.90;83.80;;;;;;5206742;28;19935;-76
2022/03/02 07:04:52;;;;;;;;;;;0.20;84.60;;;;;;5208170;28;19925;-75
2022/03/02 07:07:24;;;;;;;;;;;-0.50;83.70;;;;;;5196186;28;19928;-75
2022/03/02 07:09:57;;;;;;;;;;;-0.80;82.10;;;;;;5204871;28;19947;-75
2022/03/02 07:12:29;;;;;;;;;;;-0.70;82.40;;;;;;5205493;28;19927;-75
2022/03/02 07:15:03;;;;;;;;;;;-0.30;82.00;;;;;;5207313;28;19932;-75
2022/03/02 07:17:36;;;;;;;;;;;-1.00;80.80;;;;;;5207753;28;19928;-75
2022/03/02 07:20:10;;;;;;;;;;;-0.60;82.20;;;;;;5173999;28;19921;-74
2022/03/02 07:22:54;;;;;;;;;;;-0.90;82.20;;;;;;5207730;28;19925;-74
2022/03/02 07:25:33;;;;;;;;;;;-0.70;81.90;;;;;;5203932;28;20304;-74
2022/03/02 07:28:07;;;;;;;;;;;-0.60;81.60;;;;;;5206029;28;19921;-74
2022/03/02 07:30:39;;;;;;;;;;;-0.60;82.10;;;;;;5202858;28;19928;-74
2022/03/02 07:33:13;;;;;;;;;;;0.20;81.50;;;;;;5203644;28;19921;-74
2022/03/02 07:35:47;;;;;;;;;;;-0.90;81.00;;;;;;5162716;28;19921;-74
2022/03/02 07:38:20;;;;;;;;;;;0.00;82.00;;;;;;5196422;28;19925;-74
2022/03/02 07:40:53;;;;;;;;;;;0.20;82.10;;;;;;5199014;28;19928;-73
2022/03/02 07:43:25;;;;;;;;;;;-0.20;81.40;;;;;;5196393;28;20474;-74
2022/03/02 07:45:57;;;;;;;;;;;0.30;81.00;;;;;;5164957;28;19936;-75
2022/03/02 07:48:30;;;;;;;;;;;0.40;81.40;;;;;;5179459;28;19921;-74
2022/03/02 07:51:03;;;;;;;;;;;-0.10;81.50;;;;;;5197166;28;19925;-76
2022/03/02 07:53:47;;;;;;;;;;;0.50;81.80;;;;;;5179503;28;19924;-77
2022/03/02 07:56:20;;;;;;;;;;;0.10;81.70;;;;;;5174666;28;19925;-76
2022/03/02 07:58:52;;;;;;;;;;;0.80;81.50;;;;;;5203983;28;20396;-77
2022/03/02 08:01:25;;;;;;;;;;;-0.20;79.10;;;;;;5202891;28;19927;-76
2022/03/02 08:03:58;;;;;;;;;;;0.40;80.40;;;;;;5197814;28;20384;-76
2022/03/02 08:06:32;;;;;;;;;;;0.40;79.30;;;;;;5195380;28;19920;-76
2022/03/02 08:09:05;;;;;;;;;;;0.50;79.30;;;;;;5194389;28;19929;-76
2022/03/02 08:11:38;;;;;;;;;;;0.80;78.50;;;;;;5183271;28;19944;-76
2022/03/02 08:14:10;;;;;;;;;;;0.70;79.10;;;;;;5202893;28;19920;-76
2022/03/02 08:16:43;;;;;;;;;;;1.10;78.60;;;;;;5184359;28;19920;-77
2022/03/02 08:19:15;;;;;;;;;;;1.10;78.30;;;;;;5203977;28;19932;-77
2022/03/02 08:21:58;;;;;;;;;;;1.80;80.30;;;;;;5202501;28;19931;-77
2022/03/02 08:24:31;;;;;;;;;;;1.20;78.70;;;;;;5200256;28;19921;-77
2022/03/02 08:27:03;;;;;;;;;;;1.00;77.00;;;;;;5195780;28;19959;-78
2022/03/02 08:29:36;;;;;;;;;;;1.10;77.40;;;;;;5198871;28;19931;-77
2022/03/02 08:32:09;;;;;;;;;;;1.40;77.40;;;;;;5180464;28;19927;-76
2022/03/02 08:34:43;;;;;;;;;;;1.20;78.90;;;;;;5180342;28;19925;-76
2022/03/02 08:37:17;;;;;;;;;;;1.60;77.70;;;;;;5194610;28;20416;-77
2022/03/02 08:39:50;;;;;;;;;;;2.10;77.20;;;;;;5201477;28;19921;-77
2022/03/02 08:42:22;;;;;;;;;;;1.40;77.10;;;;;;5186624;28;19925;-77
2022/03/02 08:44:55;;;;;;;;;;;1.70;75.90;;;;;;5190478;28;19931;-78
2022/03/02 08:47:27;;;;;;;;;;;1.20;76.40;;;;;;5176570;28;19929;-77
2022/03/02 08:49:59;;;;;;;;;;;0.90;75.90;;;;;;5204400;28;19925;-79
2022/03/02 08:52:32;;;;;;;;;;;1.50;76.40;;;;;;5206892;28;20279;-77
2022/03/02 08:55:08;;;;;;;;;;;1.60;76.00;;;;;;5204804;28;19935;-78
2022/03/02 08:57:42;;;;;;;;;;;1.60;76.60;;;;;;5199442;28;19928;-76
2022/03/02 09:00:14;;;;;;;;;;;1.90;77.30;;;;;;5199300;28;20385;-78
2022/03/02 09:02:47;;;;;;;;;;;1.80;76.10;;;;;;5182630;28;19921;-78
2022/03/02 09:05:19;;;;;;;;;;;1.90;77.20;;;;;;5197387;28;19925;-78
2022/03/02 09:07:52;;;;;;;;;;;1.80;76.80;;;;;;5185160;28;19925;-77
2022/03/02 09:10:24;;;;;;;;;;;1.90;75.30;;;;;;5200109;28;19932;-77
2022/03/02 09:12:59;;;;;;;;;;;1.90;73.40;;;;;;5201116;28;19936;-78
2022/03/02 09:15:34;;;;;;;;;;;2.70;73.70;;;;;;5180875;28;19928;-78
2022/03/02 09:18:07;;;;;;;;;;;2.10;73.60;;;;;;5197093;28;20015;-78
2022/03/02 09:20:40;;;;;;;;;;;2.70;74.80;;;;;;5188343;28;19936;-79
2022/03/02 09:23:13;;;;;;;;;;;2.30;75.40;;;;;;5196410;28;20282;-77
2022/03/02 09:25:46;;;;;;;;;;;2.50;72.60;;;;;;5192896;28;19928;-77
2022/03/02 09:28:19;;;;;;;;;;;2.40;72.60;;;;;;5201798;28;19928;-76
2022/03/02 09:30:52;;;;;;;;;;;2.50;74.20;;;;;;5198780;28;19928;-76
2022/03/02 09:33:24;;;;;;;;;;;2.60;73.10;;;;;;5199708;28;19936;-76
2022/03/02 09:36:01;;;;;;;;;;;2.50;73.00;;;;;;5199853;28;19925;-76
2022/03/02 09:38:34;;;;;;;;;;;2.80;72.90;;;;;;5180471;28;19924;-77
2022/03/02 09:41:08;;;;;;;;;;;2.80;70.90;;;;;;5176099;28;20315;-75
2022/03/02 09:43:42;;;;;;;;;;;2.90;71.90;;;;;;5194383;28;20391;-78
2022/03/02 09:46:17;;;;;;;;;;;3.50;71.60;;;;;;5184703;28;19936;-78
2022/03/02 09:48:50;;;;;;;;;;;3.00;71.30;;;;;;5203039;28;19924;-77
2022/03/02 09:51:23;;;;;;;;;;;3.20;68.90;;;;;;5173572;28;19936;-77
2022/03/02 09:53:57;;;;;;;;;;;3.30;68.80;;;;;;5182188;28;20308;-76
2022/03/02 09:56:31;;;;;;;;;;;4.30;68.50;;;;;;5173999;28;19925;-78
2022/03/02 09:59:05;;;;;;;;;;;3.60;68.40;;;;;;5182954;28;19928;-77
2022/03/02 10:01:39;;;;;;;;;;;3.70;66.50;;;;;;5184350;28;19920;-76
2022/03/02 10:04:13;;;;;;;;;;;3.40;66.20;;;;;;5205159;28;19932;-77
2022/03/02 10:06:45;;;;;;;;;;;3.40;65.70;;;;;;5200989;28;19940;-77
2022/03/02 10:09:19;;;;;;;;;;;3.60;65.60;;;;;;5184806;28;20501;-77
2022/03/02 10:11:51;;;;;;;;;;;3.60;65.70;;;;;;5186564;28;19935;-79
2022/03/02 10:14:23;;;;;;;;;;;3.60;66.10;;;;;;5201124;28;20665;-79
2022/03/02 10:16:58;;;;;;;;;;;3.80;65.20;;;;;;5202822;28;19925;-78
2022/03/02 10:19:45;;;;;;;;;;;4.00;66.40;;;;;;5197370;28;19925;-77
2022/03/02 10:22:36;;;;;;;;;;;4.40;65.40;;;;;;5203181;28;19925;-78
2022/03/02 10:25:09;;;;;;;;;;;4.60;65.10;;;;;;5196450;28;19936;-77
2022/03/02 10:28:01;;;;;;;;;;;4.10;65.30;;;;;;5201380;28;19924;-77
2022/03/02 10:30:40;;;;;;;;;;;4.20;63.60;;;;;;5160754;28;19936;-77
2022/03/02 10:33:20;;;;;;;;;;;4.10;63.30;;;;;;4507108;28;10000659;-76
2022/03/02 10:35:57;;;;;;;;;;;4.20;64.00;;;;;;5195256;28;19931;-77
2022/03/02 10:38:46;;;;;;;;;;;4.30;64.80;;;;;;5189286;28;19925;-78
2022/03/02 10:41:20;;;;;;;;;;;4.20;64.90;;;;;;5204201;28;19931;-77
2022/03/02 10:44:02;;;;;;;;;;;4.40;64.30;;;;;;5202920;28;19932;-77
2022/03/02 10:46:36;;;;;;;;;;;4.60;62.30;;;;;;5203597;28;21081;-78
2022/03/02 10:49:15;;;;;;;;;;;4.70;62.20;;;;;;5182308;28;20008;-78
2022/03/02 10:51:48;;;;;;;;;;;4.70;62.70;;;;;;5203418;28;19925;-77
2022/03/02 10:54:22;;;;;;;;;;;4.50;62.60;;;;;;5182077;28;19982;-75
2022/03/02 10:56:57;;;;;;;;;;;5.10;61.90;;;;;;5181383;28;19928;-78
2022/03/02 10:59:31;;;;;;;;;;;4.80;61.80;;;;;;5186542;28;19929;-79
2022/03/02 11:02:03;;;;;;;;;;;6.20;62.70;;;;;;5201001;28;19948;-77
2022/03/02 11:04:42;;;;;;;;;;;5.00;62.10;;;;;;5200473;28;20335;-78
2022/03/02 11:07:16;;;;;;;;;;;5.10;61.60;;;;;;5200802;28;19929;-78
2022/03/02 11:09:54;;;;;;;;;;;5.10;60.30;;;;;;5185351;28;19924;-78
2022/03/02 11:12:29;;;;;;;;;;;5.20;61.60;;;;;;5200753;28;19936;-77
2022/03/02 11:15:03;;;;;;;;;;;5.20;60.30;;;;;;5188313;28;20403;-76
2022/03/02 11:17:39;;;;;;;;;;;5.30;61.20;;;;;;5184176;28;19924;-78
2022/03/02 11:20:12;;;;;;;;;;;5.40;59.30;;;;;;5198864;28;19925;-78
2022/03/02 11:22:50;;;;;;;;;;;5.40;57.50;;;;;;5189659;28;20399;-77
2022/03/02 11:25:42;;;;;;;;;;;5.60;57.40;;;;;;5203056;28;19948;-77
2022/03/02 11:28:19;;;;;;;;;;;5.60;56.20;;;;;;5183491;28;19931;-77
2022/03/02 11:30:53;;;;;;;;;;;5.60;56.80;;;;;;5189603;28;19940;-76
2022/03/02 11:33:27;;;;;;;;;;;5.70;56.70;;;;;;5202507;28;19925;-76
2022/03/02 11:36:10;;;;;;;;;;;5.70;55.10;;;;;;5195611;28;19929;-77
2022/03/02 11:38:43;;;;;;;;;;;5.70;55.90;;;;;;5201256;28;20092;-76
2022/03/02 11:41:18;;;;;;;;;;;6.30;54.30;;;;;;5194285;28;19924;-78
2022/03/02 11:43:50;;;;;;;;;;;5.60;53.50;;;;;;5207142;28;19929;-76
2022/03/02 11:46:22;;;;;;;;;;;5.70;53.00;;;;;;5213728;28;19920;-77
2022/03/02 11:48:55;;;;;;;;;;;5.90;53.20;;;;;;5209214;28;19925;-77
2022/03/02 11:51:30;;;;;;;;;;;6.00;53.40;;;;;;5198395;28;19924;-77
2022/03/02 11:54:02;;;;;;;;;;;5.70;52.10;;;;;;5191785;28;19929;-78
2022/03/02 11:56:35;;;;;;;;;;;6.00;52.30;;;;;;5186460;28;19932;-78
2022/03/02 11:59:09;;;;;;;;;;;6.10;51.50;;;;;;5209682;28;20260;-78
2022/03/02 12:01:54;;;;;;;;;;;6.10;49.00;;;;;;5213446;28;19921;-78
2022/03/02 12:04:35;;;;;;;;;;;6.10;51.10;;;;;;5199647;28;20237;-72
2022/03/02 12:07:08;;;;;;;;;;;6.10;51.90;;;;;;5204213;28;19929;-77
2022/03/02 12:09:42;;;;;;;;;;;8.60;51.70;;;;;;5206671;28;19928;-78
2022/03/02 12:12:21;;;;;;;;;;;6.20;51.50;;;;;;5217360;28;19917;-75
2022/03/02 12:14:57;;;;;;;;;;;6.20;50.90;;;;;;5193377;28;20300;-76
2022/03/02 12:17:33;;;;;;;;;;;6.20;51.10;;;;;;5207416;28;19925;-77
2022/03/02 12:20:07;;;;;;;;;;;6.20;50.80;;;;;;5206408;28;19925;-77
2022/03/02 12:22:48;;;;;;;;;;;6.40;50.40;;;;;;5205626;28;19929;-78
2022/03/02 12:25:24;;;;;;;;;;;6.10;50.90;;;;;;5203468;28;19920;-75
2022/03/02 12:27:57;;;;;;;;;;;6.20;50.80;;;;;;5201386;28;20328;-77
2022/03/02 12:30:34;;;;;;;;;;;6.20;50.80;;;;;;5202467;28;19924;-78
2022/03/02 12:33:07;;;;;;;;;;;6.20;50.70;;;;;;5169020;28;20505;-77
2022/03/02 12:35:39;;;;;;;;;;;6.20;50.40;;;;;;5182187;28;19928;-76
2022/03/02 12:38:12;;;;;;;;;;;6.20;51.00;;;;;;5194895;28;20495;-79
2022/03/02 12:40:45;;;;;;;;;;;6.30;50.40;;;;;;5203574;28;19925;-77
2022/03/02 12:43:18;;;;;;;;;;;6.50;51.50;;;;;;5194301;28;20404;-78
2022/03/02 12:45:56;;;;;;;;;;;6.20;51.30;;;;;;5165215;28;19924;-77
2022/03/02 12:48:28;;;;;;;;;;;6.20;50.20;;;;;;5203692;28;19924;-78
2022/03/02 12:51:21;;;;;;;;;;;6.20;50.20;;;;;;5193597;28;19928;-76
2022/03/02 12:53:53;;;;;;;;;;;6.20;50.00;;;;;;5206251;28;19929;-77
2022/03/02 12:56:26;;;;;;;;;;;6.20;48.50;;;;;;5201704;28;20455;-77
2022/03/02 12:58:58;;;;;;;;;;;6.10;47.20;;;;;;5202615;28;19931;-77
2022/03/02 13:01:31;;;;;;;;;;;7.30;49.70;;;;;;5205950;28;19921;-77
2022/03/02 13:04:04;;;;;;;;;;;6.20;49.50;;;;;;5205293;28;19935;-77
2022/03/02 13:06:40;;;;;;;;;;;6.20;50.20;;;;;;5187304;28;19937;-77
2022/03/02 13:09:14;;;;;;;;;;;6.20;50.10;;;;;;5189024;28;19924;-78
2022/03/02 13:11:47;;;;;;;;;;;6.30;50.40;;;;;;5194977;28;19924;-78
2022/03/02 13:14:33;;;;;;;;;;;6.30;50.20;;;;;;5185845;28;19925;-78
2022/03/02 13:17:16;;;;;;;;;;;6.20;50.70;;;;;;5182466;28;20333;-77
2022/03/02 13:20:18;;;;;;;;;;;6.20;49.10;;;;;;5180236;28;20561;-78
2022/03/02 13:23:09;;;;;;;;;;;6.30;51.40;;;;;;5201467;28;19924;-78
2022/03/02 13:26:02;;;;;;;;;;;6.20;52.80;;;;;;5199383;28;20299;-78
2022/03/02 13:28:36;;;;;;;;;;;6.40;53.20;;;;;;5194702;28;19924;-78
2022/03/02 13:31:09;;;;;;;;;;;6.30;54.00;;;;;;5199040;28;19935;-77
2022/03/02 13:33:51;;;;;;;;;;;6.30;53.50;;;;;;5186988;28;20304;-78
2022/03/02 13:36:35;;;;;;;;;;;6.30;53.50;;;;;;5199329;28;19931;-78
2022/03/02 13:39:07;;;;;;;;;;;6.30;53.30;;;;;;5196306;28;19928;-76
2022/03/02 13:41:49;;;;;;;;;;;6.30;54.90;;;;;;5198342;28;19925;-77
2022/03/02 13:44:35;;;;;;;;;;;6.30;54.00;;;;;;5198867;28;20403;-76
2022/03/02 13:47:08;;;;;;;;;;;6.30;54.80;;;;;;5179212;28;19929;-77
2022/03/02 13:52:31;;;;;;;;;;;6.30;55.50;;;;;;5186046;28;19925;-78
2022/03/02 13:55:12;;;;;;;;;;;6.30;57.40;;;;;;5186218;28;20392;-76
2022/03/02 13:58:18;;;;;;;;;;;6.30;58.70;;;;;;5198497;28;19921;-77
2022/03/02 14:00:52;;;;;;;;;;;6.30;59.00;;;;;;5193927;28;20568;-76
2022/03/02 14:03:26;;;;;;;;;;;6.30;59.80;;;;;;5196231;28;19937;-77
2022/03/02 14:05:58;;;;;;;;;;;6.30;61.20;;;;;;5180835;28;19936;-77
2022/03/02 14:08:40;;;;;;;;;;;6.30;61.80;;;;;;5179804;28;22713;-77
2022/03/02 14:11:31;;;;;;;;;;;6.20;62.10;;;;;;5175628;28;20192;-77
2022/03/02 14:14:05;;;;;;;;;;;6.20;63.10;;;;;;5198358;28;20440;-77
2022/03/02 14:16:38;;;;;;;;;;;6.10;62.70;;;;;;5187434;28;19924;-75
2022/03/02 14:19:11;;;;;;;;;;;6.20;63.70;;;;;;5164715;28;20672;-76
2022/03/02 14:21:51;;;;;;;;;;;6.10;63.10;;;;;;5189043;28;19933;-76
2022/03/02 14:24:25;;;;;;;;;;;6.00;64.00;;;;;;5197953;28;19925;-76
2022/03/02 14:27:07;;;;;;;;;;;6.00;64.30;;;;;;5183122;28;20307;-76
2022/03/02 14:29:39;;;;;;;;;;;6.00;64.20;;;;;;5181286;28;19924;-78
2022/03/02 14:32:12;;;;;;;;;;;6.00;64.10;;;;;;5201110;28;19932;-77
2022/03/02 14:34:49;;;;;;;;;;;6.60;64.40;;;;;;5185668;28;19929;-78
2022/03/02 14:37:27;;;;;;;;;;;5.90;63.30;;;;;;5180858;28;19921;-77
2022/03/02 14:39:59;;;;;;;;;;;5.90;63.70;;;;;;5201713;28;20439;-78
2022/03/02 14:42:36;;;;;;;;;;;5.80;63.80;;;;;;5198069;28;19924;-76
2022/03/02 14:45:30;;;;;;;;;;;5.80;64.10;;;;;;5197820;28;19932;-76
2022/03/02 14:48:04;;;;;;;;;;;5.80;65.10;;;;;;5187858;28;19936;-78
2022/03/02 14:50:42;;;;;;;;;;;5.80;64.50;;;;;;5188364;28;20980;-77
2022/03/02 14:53:16;;;;;;;;;;;5.90;65.10;;;;;;5186130;28;20199;-77
2022/03/02 14:55:57;;;;;;;;;;;5.80;64.50;;;;;;5185705;28;19921;-78
2022/03/02 14:58:34;;;;;;;;;;;5.70;64.60;;;;;;5197472;28;19925;-77
2022/03/02 15:01:06;;;;;;;;;;;5.80;64.80;;;;;;5203949;28;19924;-77
2022/03/02 15:03:41;;;;;;;;;;;5.80;64.80;;;;;;5181015;28;19928;-77
2022/03/02 15:06:14;;;;;;;;;;;6.40;65.20;;;;;;5162054;28;20388;-77
2022/03/02 15:08:48;;;;;;;;;;;7.40;65.90;;;;;;5198233;28;19929;-77
2022/03/02 15:11:44;;;;;;;;;;;5.80;65.20;;;;;;5187591;28;20651;-76